createdAt,value
2023-01-13T00:01:17.012Z,66.11
2023-01-13T00:03:43.902Z,65.52
2023-01-13T00:06:16.028Z,65.90
2023-01-13T00:08:42.673Z,66.07
2023-01-13T00:11:10.161Z,65.91
2023-01-13T00:13:40.308Z,66.95
2023-01-13T00:16:09.696Z,67.04
2023-01-13T00:18:38.914Z,67.11
2023-01-13T00:21:17.148Z,66.51
2023-01-13T00:23:44.543Z,67.42
2023-01-13T00:26:14.827Z,67.70
2023-01-13T00:28:41.895Z,67.80
2023-01-13T00:31:17.205Z,67.77
2023-01-13T00:33:44.006Z,68.63
2023-01-13T00:36:13.422Z,68.86
2023-01-13T00:38:40.198Z,69.46
2023-01-13T00:41:09.527Z,70.21
2023-01-13T00:43:37.326Z,71.70
2023-01-13T00:46:05.759Z,72.42
2023-01-13T00:48:32.969Z,73.00
2023-01-13T00:51:05.855Z,73.18
2023-01-13T00:53:41.311Z,73.04
2023-01-13T00:56:14.286Z,72.88
2023-01-13T00:58:42.068Z,73.82
2023-01-13T01:01:12.051Z,73.20
2023-01-13T01:03:38.824Z,73.61
2023-01-13T01:06:08.600Z,72.61
2023-01-13T01:08:36.054Z,73.88
2023-01-13T01:11:07.783Z,72.91
2023-01-13T01:13:34.904Z,73.89
2023-01-13T01:16:06.915Z,73.99
2023-01-13T01:18:39.934Z,74.66
2023-01-13T01:21:06.916Z,73.09
2023-01-13T01:23:35.012Z,73.86
2023-01-13T01:26:11.029Z,74.55
2023-01-13T01:28:37.657Z,72.62
2023-01-13T01:31:09.322Z,73.05
2023-01-13T01:33:36.019Z,71.77
2023-01-13T01:36:03.457Z,71.83
2023-01-13T01:38:30.045Z,71.64
2023-01-13T01:40:56.677Z,71.14
2023-01-13T01:44:02.519Z,71.36
2023-01-13T01:46:38.033Z,71.39
2023-01-13T01:49:23.875Z,70.76
2023-01-13T01:51:56.313Z,69.77
2023-01-13T01:54:27.679Z,69.95
2023-01-13T01:56:55.291Z,70.21
2023-01-13T01:59:22.013Z,69.92
2023-01-13T02:01:48.767Z,70.00
2023-01-13T02:04:21.168Z,69.58
2023-01-13T02:06:49.155Z,68.78
2023-01-13T02:09:17.220Z,68.53
2023-01-13T02:12:03.010Z,68.74
2023-01-13T02:14:30.652Z,68.61
2023-01-13T02:17:12.581Z,68.29
2023-01-13T02:19:54.348Z,68.51
2023-01-13T02:22:23.861Z,67.83
2023-01-13T02:25:05.598Z,67.97
2023-01-13T02:27:57.191Z,68.15
2023-01-13T02:30:58.741Z,68.03
2023-01-13T02:33:51.282Z,67.76
2023-01-13T02:36:47.659Z,67.58
2023-01-13T02:39:22.892Z,67.16
2023-01-13T02:42:24.053Z,67.25
2023-01-13T02:45:02.473Z,67.52
2023-01-13T02:47:32.685Z,66.66
2023-01-13T02:50:28.984Z,66.49
2023-01-13T02:53:01.268Z,66.49
2023-01-13T02:55:41.518Z,67.38
2023-01-13T02:58:12.070Z,66.68
2023-01-13T03:00:39.646Z,67.24
2023-01-13T03:03:06.181Z,67.30
2023-01-13T03:05:34.549Z,66.51
2023-01-13T03:08:22.304Z,66.74
2023-01-13T03:11:04.120Z,66.64
2023-01-13T03:13:42.633Z,67.00
2023-01-13T03:16:09.208Z,67.18
2023-01-13T03:18:41.811Z,66.62
2023-01-13T03:21:34.345Z,67.09
2023-01-13T03:24:07.209Z,66.15
2023-01-13T03:26:43.945Z,66.52
2023-01-13T03:29:18.894Z,66.76
2023-01-13T03:31:58.817Z,66.51
2023-01-13T03:34:33.595Z,66.20
2023-01-13T03:37:05.705Z,66.08
2023-01-13T03:39:36.583Z,66.40
2023-01-13T03:42:11.826Z,65.77
2023-01-13T03:44:49.442Z,65.77
2023-01-13T03:47:31.661Z,65.25
2023-01-13T03:50:01.202Z,65.37
2023-01-13T03:52:41.320Z,66.36
2023-01-13T03:55:13.881Z,66.71
2023-01-13T03:57:59.674Z,65.93
2023-01-13T04:00:32.380Z,66.25
2023-01-13T04:03:06.285Z,66.43
2023-01-13T04:05:39.453Z,65.73
2023-01-13T04:08:18.035Z,65.92
2023-01-13T04:11:12.090Z,66.22
2023-01-13T04:13:41.908Z,66.42
2023-01-13T04:16:11.312Z,66.36
2023-01-13T04:18:39.754Z,66.17
2023-01-13T04:21:07.791Z,66.89
2023-01-13T04:23:34.812Z,66.38
2023-01-13T04:26:01.395Z,66.03
2023-01-13T04:28:27.994Z,65.79
2023-01-13T04:30:54.592Z,65.64
2023-01-13T04:33:21.213Z,65.78
2023-01-13T04:35:48.313Z,65.62
2023-01-13T04:38:17.444Z,65.97
2023-01-13T04:40:44.562Z,67.03
2023-01-13T04:43:11.306Z,66.49
2023-01-13T04:45:38.248Z,66.30
2023-01-13T04:48:05.457Z,66.67
2023-01-13T04:50:32.035Z,66.47
2023-01-13T04:53:00.365Z,66.03
2023-01-13T04:55:27.628Z,66.08
2023-01-13T04:57:54.292Z,66.38
2023-01-13T05:00:22.897Z,65.73
2023-01-13T05:02:51.009Z,66.80
2023-01-13T05:05:18.348Z,66.18
2023-01-13T05:07:44.875Z,65.75
2023-01-13T05:10:11.863Z,66.10
2023-01-13T05:12:57.184Z,65.82
2023-01-13T05:15:41.987Z,65.63
2023-01-13T05:18:08.986Z,66.09
2023-01-13T05:20:35.508Z,65.87
2023-01-13T05:23:20.382Z,66.55
2023-01-13T05:25:48.309Z,65.62
2023-01-13T05:28:15.743Z,66.06
2023-01-13T05:30:46.035Z,66.21
2023-01-13T05:33:15.243Z,65.24
2023-01-13T05:35:43.806Z,65.63
2023-01-13T05:38:11.201Z,66.02
2023-01-13T05:40:59.390Z,65.65
2023-01-13T05:43:26.600Z,66.36
2023-01-13T05:45:59.036Z,65.45
2023-01-13T05:48:39.139Z,66.04
2023-01-13T05:51:08.046Z,66.04
2023-01-13T05:53:35.304Z,66.08
2023-01-13T05:56:05.150Z,66.43
2023-01-13T05:58:31.921Z,65.60
2023-01-13T06:01:16.704Z,66.59
2023-01-13T06:03:43.226Z,66.01
2023-01-13T06:06:09.783Z,65.85
2023-01-13T06:08:39.303Z,66.16
2023-01-13T06:11:06.238Z,66.20
2023-01-13T06:13:32.756Z,65.75
2023-01-13T06:15:59.676Z,66.26
2023-01-13T06:18:26.582Z,65.74
2023-01-13T06:20:53.160Z,66.61
2023-01-13T06:23:19.740Z,65.63
2023-01-13T06:26:02.301Z,65.48
2023-01-13T06:28:28.889Z,65.83
2023-01-13T06:31:00.168Z,65.85
2023-01-13T06:33:34.836Z,66.32
2023-01-13T06:36:06.558Z,66.17
2023-01-13T06:38:37.488Z,66.27
2023-01-13T06:41:06.275Z,65.99
2023-01-13T06:43:33.119Z,65.89
2023-01-13T06:46:01.475Z,65.91
2023-01-13T06:48:34.985Z,65.85
2023-01-13T06:51:02.616Z,66.11
2023-01-13T06:53:29.160Z,65.49
2023-01-13T06:55:55.667Z,65.85
2023-01-13T06:58:22.211Z,66.09
2023-01-13T07:00:51.363Z,66.13
2023-01-13T07:03:19.591Z,66.46
2023-01-13T07:05:52.542Z,65.88
2023-01-13T07:08:19.665Z,65.77
2023-01-13T07:10:46.243Z,65.90
2023-01-13T07:13:31.319Z,65.64
2023-01-13T07:16:00.735Z,66.40
2023-01-13T07:18:28.444Z,66.05
2023-01-13T07:20:56.991Z,66.12
2023-01-13T07:23:24.304Z,66.17
2023-01-13T07:25:51.017Z,65.66
2023-01-13T07:28:17.633Z,65.96
2023-01-13T07:30:44.311Z,66.00
2023-01-13T07:33:10.854Z,65.98
2023-01-13T07:35:37.434Z,65.01
2023-01-13T07:38:03.967Z,64.75
2023-01-13T07:40:30.704Z,64.60
2023-01-13T07:43:20.285Z,64.82
2023-01-13T07:45:46.954Z,65.35
2023-01-13T07:48:13.541Z,64.82
2023-01-13T07:50:41.550Z,64.89
2023-01-13T07:53:09.252Z,64.78
2023-01-13T07:55:35.750Z,63.94
2023-01-13T07:58:02.703Z,63.87
2023-01-13T08:00:29.346Z,64.25
2023-01-13T08:02:56.035Z,64.86
2023-01-13T08:05:22.673Z,64.24
2023-01-13T08:07:49.218Z,64.33
2023-01-13T08:10:16.053Z,63.79
2023-01-13T08:13:01.150Z,63.52
2023-01-13T08:15:29.657Z,63.46
2023-01-13T08:17:56.174Z,62.98
2023-01-13T08:20:22.711Z,63.02
2023-01-13T08:22:49.258Z,63.00
2023-01-13T08:25:15.879Z,62.95
2023-01-13T08:27:42.398Z,63.23
2023-01-13T08:30:09.689Z,63.47
2023-01-13T08:32:36.305Z,63.73
2023-01-13T08:35:02.868Z,64.06
2023-01-13T08:37:29.453Z,64.26
2023-01-13T08:39:55.971Z,63.49
2023-01-13T08:42:22.485Z,63.44
2023-01-13T08:44:49.017Z,63.23
2023-01-13T08:47:15.649Z,63.13
2023-01-13T08:49:42.252Z,63.20
2023-01-13T08:52:08.861Z,62.78
2023-01-13T08:54:36.372Z,62.94
2023-01-13T08:57:03.404Z,63.23
2023-01-13T08:59:30.093Z,62.68
2023-01-13T09:01:56.789Z,62.87
2023-01-13T09:04:25.882Z,62.16
2023-01-13T09:06:52.423Z,62.03
2023-01-13T09:09:22.123Z,61.49
2023-01-13T09:12:09.235Z,61.42
2023-01-13T09:14:37.681Z,61.49
2023-01-13T09:17:04.769Z,61.88
2023-01-13T09:19:31.329Z,61.61
2023-01-13T09:21:58.012Z,61.78
2023-01-13T09:24:25.954Z,62.42
2023-01-13T09:26:52.801Z,62.07
2023-01-13T09:29:19.773Z,66.67
2023-01-13T09:31:46.825Z,72.61
2023-01-13T09:34:34.556Z,75.44
2023-01-13T09:37:01.429Z,76.30
2023-01-13T09:39:27.992Z,78.52
2023-01-13T09:42:16.965Z,78.58
2023-01-13T09:45:14.769Z,80.18
2023-01-13T09:48:07.523Z,79.31
2023-01-13T09:50:49.858Z,80.25
2023-01-13T09:53:25.463Z,79.22
2023-01-13T09:55:52.984Z,78.63
2023-01-13T09:58:19.848Z,78.81
2023-01-13T10:01:07.617Z,78.55
2023-01-13T10:03:35.743Z,78.36
2023-01-13T10:06:13.612Z,77.65
2023-01-13T10:08:45.666Z,78.19
2023-01-13T10:11:41.687Z,77.27
2023-01-13T10:14:14.086Z,77.29
2023-01-13T10:17:26.001Z,76.59
2023-01-13T10:19:55.300Z,77.44
2023-01-13T10:22:34.363Z,75.63
2023-01-13T10:25:20.572Z,76.05
2023-01-13T10:27:54.252Z,75.96
2023-01-13T10:30:31.407Z,76.30
2023-01-13T10:33:00.333Z,74.15
2023-01-13T10:35:49.296Z,74.67
2023-01-13T10:38:19.040Z,74.35
2023-01-13T10:40:51.350Z,74.63
2023-01-13T10:43:17.949Z,73.44
2023-01-13T10:45:55.850Z,75.21
2023-01-13T10:48:22.435Z,75.06
2023-01-13T10:50:49.187Z,73.74
2023-01-13T10:53:23.870Z,72.51
2023-01-13T10:56:04.762Z,72.87
2023-01-13T10:58:31.318Z,72.98
2023-01-13T11:01:06.233Z,73.77
2023-01-13T11:03:41.421Z,72.13
2023-01-13T11:06:21.089Z,71.46
2023-01-13T11:08:50.233Z,70.31
2023-01-13T11:11:35.059Z,71.25
2023-01-13T11:14:23.931Z,71.16
2023-01-13T11:16:55.244Z,71.91
2023-01-13T11:19:24.700Z,70.74
2023-01-13T11:22:00.298Z,71.55
2023-01-13T11:24:51.052Z,71.62
2023-01-13T11:27:20.485Z,73.06
2023-01-13T11:29:56.099Z,73.30
2023-01-13T11:32:24.346Z,72.80
2023-01-13T11:34:59.357Z,73.04
2023-01-13T11:37:27.471Z,70.98
2023-01-13T11:40:06.151Z,70.39
2023-01-13T11:42:48.416Z,70.19
2023-01-13T11:45:44.208Z,69.80
2023-01-13T11:48:23.716Z,69.10
2023-01-13T11:50:57.113Z,69.83
2023-01-13T11:53:42.399Z,69.12
2023-01-13T11:56:08.858Z,69.25
2023-01-13T11:59:29.039Z,70.16
2023-01-13T12:02:20.051Z,69.50
2023-01-13T12:05:05.416Z,69.74
2023-01-13T12:08:02.641Z,69.76
2023-01-13T12:10:53.659Z,68.58
2023-01-13T12:13:34.408Z,68.09
2023-01-13T12:16:28.627Z,67.27
2023-01-13T12:19:07.640Z,66.24
2023-01-13T12:21:39.866Z,66.40
2023-01-13T12:24:38.121Z,65.76
2023-01-13T12:27:13.884Z,64.91
2023-01-13T12:29:40.581Z,65.33
2023-01-13T12:32:21.029Z,64.97
2023-01-13T12:34:57.111Z,65.46
2023-01-13T12:37:26.415Z,64.54
2023-01-13T12:40:18.851Z,64.96
2023-01-13T12:43:14.099Z,64.73
2023-01-13T12:45:40.735Z,65.37
2023-01-13T12:48:07.322Z,65.23
2023-01-13T12:50:33.831Z,65.00
2023-01-13T12:53:21.569Z,65.03
2023-01-13T12:55:52.126Z,65.29
2023-01-13T12:58:28.108Z,64.67
2023-01-13T13:00:58.915Z,64.37
2023-01-13T13:03:35.715Z,64.16
2023-01-13T13:06:22.941Z,65.92
2023-01-13T13:09:20.151Z,65.43
2023-01-13T13:12:03.833Z,65.03
2023-01-13T13:14:39.698Z,65.05
2023-01-13T13:17:28.069Z,65.37
2023-01-13T13:19:56.439Z,65.27
2023-01-13T13:22:35.108Z,65.32
2023-01-13T13:25:04.460Z,64.48
2023-01-13T13:27:37.104Z,64.87
2023-01-13T13:30:17.103Z,65.44
2023-01-13T13:32:56.268Z,65.41
2023-01-13T13:35:22.918Z,64.57
2023-01-13T13:38:22.868Z,65.69
2023-01-13T13:41:08.816Z,65.60
2023-01-13T13:44:01.846Z,65.22
2023-01-13T13:46:46.813Z,65.33
2023-01-13T13:49:21.429Z,65.23
2023-01-13T13:51:53.582Z,64.76
2023-01-13T13:54:22.531Z,65.30
2023-01-13T13:56:50.422Z,64.94
2023-01-13T13:59:21.490Z,65.56
2023-01-13T14:02:00.755Z,65.29
2023-01-13T14:04:30.410Z,65.14
2023-01-13T14:07:04.925Z,65.22
2023-01-13T14:09:41.635Z,64.65
2023-01-13T14:12:20.629Z,64.23
2023-01-13T14:14:49.085Z,64.29
2023-01-13T14:17:27.705Z,64.15
2023-01-13T14:20:07.997Z,63.85
2023-01-13T14:22:34.715Z,64.03
2023-01-13T14:25:02.049Z,63.26
2023-01-13T14:27:30.824Z,64.22
2023-01-13T14:30:00.307Z,64.10
2023-01-13T14:32:36.795Z,63.26
2023-01-13T14:35:07.873Z,61.89
2023-01-13T14:37:40.928Z,62.46
2023-01-13T14:40:35.914Z,62.33
2023-01-13T14:43:10.624Z,63.57
2023-01-13T14:45:37.242Z,63.43
2023-01-13T14:48:08.726Z,62.80
2023-01-13T14:50:35.430Z,62.40
2023-01-13T14:53:02.200Z,63.18
2023-01-13T14:55:32.712Z,61.80
2023-01-13T14:58:23.501Z,62.36
2023-01-13T15:00:52.530Z,62.77
2023-01-13T15:03:21.304Z,62.83
2023-01-13T15:05:50.240Z,62.48
2023-01-13T15:08:26.331Z,62.00
2023-01-13T15:11:05.224Z,62.23
2023-01-13T15:13:38.577Z,62.64
2023-01-13T15:16:13.678Z,62.94
2023-01-13T15:18:41.278Z,71.55
2023-01-13T15:21:09.520Z,73.43
2023-01-13T15:23:36.941Z,74.02
2023-01-13T15:26:03.885Z,76.97
2023-01-13T15:28:32.158Z,77.93
2023-01-13T15:31:01.661Z,77.05
2023-01-13T15:33:28.222Z,78.81
2023-01-13T15:35:54.910Z,76.68
2023-01-13T15:38:23.576Z,78.61
2023-01-13T15:40:51.854Z,79.12
2023-01-13T15:43:39.377Z,79.40
2023-01-13T15:46:36.092Z,80.46
2023-01-13T15:49:22.909Z,79.99
2023-01-13T15:51:49.974Z,81.30
2023-01-13T15:54:16.550Z,83.23
2023-01-13T15:56:43.169Z,83.91
2023-01-13T15:59:17.496Z,84.23
2023-01-13T16:01:45.746Z,84.07
2023-01-13T16:04:12.333Z,83.30
2023-01-13T16:06:38.928Z,83.45
2023-01-13T16:09:05.748Z,83.81
2023-01-13T16:11:32.571Z,83.44
2023-01-13T16:13:59.301Z,83.05
2023-01-13T16:16:27.939Z,82.43
2023-01-13T16:18:55.032Z,81.45
2023-01-13T16:21:22.321Z,81.18
2023-01-13T16:23:50.388Z,81.97
2023-01-13T16:26:29.095Z,81.81
2023-01-13T16:28:57.301Z,81.07
2023-01-13T16:31:32.982Z,78.79
2023-01-13T16:34:01.434Z,78.22
2023-01-13T16:36:30.189Z,76.20
2023-01-13T16:38:57.165Z,75.63
2023-01-13T16:41:25.020Z,74.05
2023-01-13T16:43:51.822Z,73.02
2023-01-13T16:46:29.295Z,72.27
2023-01-13T16:49:01.796Z,73.15
2023-01-13T16:51:28.384Z,72.07
2023-01-13T16:53:54.932Z,72.26
2023-01-13T16:56:33.286Z,71.50
2023-01-13T16:59:05.665Z,71.46
2023-01-13T17:01:34.554Z,69.74
2023-01-13T17:04:01.595Z,71.02
2023-01-13T17:06:31.015Z,69.79
2023-01-13T17:09:06.352Z,70.20
2023-01-13T17:11:33.162Z,69.84
2023-01-13T17:13:59.880Z,68.96
2023-01-13T17:16:27.002Z,69.52
2023-01-13T17:18:53.943Z,68.46
2023-01-13T17:21:20.557Z,68.93
2023-01-13T17:23:47.148Z,68.17
2023-01-13T17:26:49.017Z,68.20
2023-01-13T17:29:22.197Z,66.68
2023-01-13T17:31:50.484Z,65.94
2023-01-13T17:34:17.233Z,65.80
2023-01-13T17:36:43.894Z,65.47
2023-01-13T17:39:16.911Z,65.68
2023-01-13T17:41:43.665Z,66.01
2023-01-13T17:44:13.819Z,64.59
2023-01-13T17:46:42.092Z,64.38
2023-01-13T17:49:17.453Z,63.02
2023-01-13T17:51:47.363Z,63.68
2023-01-13T17:54:15.254Z,62.92
2023-01-13T17:56:42.295Z,63.01
2023-01-13T17:59:11.096Z,62.83
2023-01-13T18:01:38.121Z,62.52
2023-01-13T18:04:05.829Z,62.74
2023-01-13T18:06:32.773Z,62.64
2023-01-13T18:09:00.182Z,62.51
2023-01-13T18:11:27.420Z,62.22
2023-01-13T18:13:56.654Z,62.43
2023-01-13T18:16:24.354Z,63.17
2023-01-13T18:18:52.102Z,68.27
2023-01-13T18:21:37.418Z,68.24
2023-01-13T18:24:23.291Z,70.54
2023-01-13T18:27:08.637Z,69.22
2023-01-13T18:29:35.254Z,69.22
2023-01-13T18:32:01.778Z,68.13
2023-01-13T18:34:28.427Z,67.13
2023-01-13T18:36:54.950Z,66.17
2023-01-13T18:39:21.505Z,65.81
2023-01-13T18:42:06.434Z,65.35
2023-01-13T18:44:32.960Z,64.83
2023-01-13T18:46:59.487Z,64.99
2023-01-13T18:49:26.057Z,64.20
2023-01-13T18:51:52.641Z,64.08
2023-01-13T18:54:19.727Z,63.66
2023-01-13T18:56:46.963Z,64.14
2023-01-13T18:59:13.540Z,63.27
2023-01-13T19:01:40.369Z,63.66
2023-01-13T19:04:11.494Z,63.29
2023-01-13T19:06:40.349Z,62.80
2023-01-13T19:09:08.736Z,62.80
2023-01-13T19:11:38.708Z,63.06
2023-01-13T19:14:05.266Z,63.25
2023-01-13T19:16:31.765Z,63.02
2023-01-13T19:18:59.558Z,62.50
2023-01-13T19:21:26.084Z,62.37
2023-01-13T19:23:56.900Z,63.05
2023-01-13T19:26:23.535Z,62.83
2023-01-13T19:28:50.637Z,62.61
2023-01-13T19:31:17.228Z,62.50
2023-01-13T19:33:43.819Z,62.99
2023-01-13T19:36:10.745Z,63.25
2023-01-13T19:38:37.870Z,63.78
2023-01-13T19:41:11.653Z,63.63
2023-01-13T19:43:56.851Z,63.46
2023-01-13T19:46:26.324Z,63.95
2023-01-13T19:48:52.754Z,64.10
2023-01-13T19:51:19.315Z,64.57
2023-01-13T19:53:46.887Z,64.34
2023-01-13T19:56:14.450Z,64.49
2023-01-13T19:58:42.058Z,65.02
2023-01-13T20:01:10.209Z,64.92
2023-01-13T20:03:37.735Z,65.17
2023-01-13T20:06:08.277Z,65.09
2023-01-13T20:08:34.817Z,65.52
2023-01-13T20:11:21.307Z,65.11
2023-01-13T20:13:49.217Z,65.38
2023-01-13T20:16:15.777Z,65.39
2023-01-13T20:18:42.335Z,64.95
2023-01-13T20:21:09.221Z,64.93
2023-01-13T20:23:35.887Z,65.93
2023-01-13T20:26:02.431Z,65.66
2023-01-13T20:28:28.996Z,66.29
2023-01-13T20:30:55.833Z,66.41
2023-01-13T20:33:22.368Z,66.83
2023-01-13T20:35:57.129Z,66.61
2023-01-13T20:38:23.733Z,67.01
2023-01-13T20:41:00.855Z,66.62
2023-01-13T20:43:27.790Z,66.66
2023-01-13T20:45:54.441Z,66.76
2023-01-13T20:48:20.984Z,66.76
2023-01-13T20:50:53.566Z,66.59
2023-01-13T20:53:20.104Z,66.17
2023-01-13T20:55:46.639Z,66.16
2023-01-13T20:58:13.130Z,66.15
2023-01-13T21:00:39.664Z,66.56
2023-01-13T21:03:06.459Z,66.64
2023-01-13T21:05:35.805Z,67.11
2023-01-13T21:08:02.694Z,67.30
2023-01-13T21:10:29.205Z,67.17
2023-01-13T21:13:14.281Z,67.28
2023-01-13T21:15:45.872Z,67.05
2023-01-13T21:18:30.904Z,66.80
2023-01-13T21:21:11.543Z,67.10
2023-01-13T21:23:43.116Z,67.15
2023-01-13T21:26:11.543Z,67.42
2023-01-13T21:28:38.128Z,67.47
2023-01-13T21:31:09.326Z,67.17
2023-01-13T21:33:36.359Z,66.65
2023-01-13T21:36:07.255Z,66.87
2023-01-13T21:38:34.050Z,66.75
2023-01-13T21:41:06.291Z,66.70
2023-01-13T21:43:51.801Z,67.07
2023-01-13T21:46:37.521Z,66.86
2023-01-13T21:49:04.691Z,66.84
2023-01-13T21:51:31.471Z,67.38
2023-01-13T21:53:58.051Z,66.71
2023-01-13T21:56:25.374Z,66.56
2023-01-13T21:58:52.147Z,67.26
2023-01-13T22:01:19.377Z,67.60
2023-01-13T22:04:04.564Z,68.40
2023-01-13T22:06:31.197Z,68.41
2023-01-13T22:09:00.980Z,68.97
2023-01-13T22:11:28.649Z,69.21
2023-01-13T22:14:08.649Z,69.69
2023-01-13T22:16:41.779Z,69.31
2023-01-13T22:19:10.101Z,69.62
2023-01-13T22:21:36.959Z,69.52
2023-01-13T22:24:03.564Z,69.56
2023-01-13T22:26:30.129Z,69.03
2023-01-13T22:28:56.850Z,69.14
2023-01-13T22:31:24.445Z,68.97
2023-01-13T22:33:55.372Z,68.49
2023-01-13T22:36:24.066Z,68.51
2023-01-13T22:38:57.162Z,68.51
2023-01-13T22:41:23.875Z,69.18
2023-01-13T22:43:50.414Z,68.85
2023-01-13T22:46:17.413Z,69.05
2023-01-13T22:48:45.919Z,69.20
2023-01-13T22:51:16.911Z,68.94
2023-01-13T22:53:43.632Z,69.16
2023-01-13T22:56:16.605Z,69.46
2023-01-13T22:58:43.939Z,68.91
2023-01-13T23:01:16.884Z,68.22
2023-01-13T23:03:47.622Z,68.75
2023-01-13T23:06:15.007Z,67.97
2023-01-13T23:08:41.705Z,68.52
2023-01-13T23:11:15.440Z,68.74
2023-01-13T23:13:43.270Z,69.29
2023-01-13T23:16:13.009Z,69.43
2023-01-13T23:18:42.566Z,69.44
2023-01-13T23:21:12.467Z,70.61
2023-01-13T23:23:39.749Z,71.21
2023-01-13T23:26:07.394Z,71.65
2023-01-13T23:28:35.302Z,71.46
2023-01-13T23:31:10.453Z,71.50
2023-01-13T23:33:41.354Z,72.73
2023-01-13T23:36:12.830Z,71.71
2023-01-13T23:38:40.323Z,71.21
2023-01-13T23:41:09.647Z,71.53
2023-01-13T23:43:36.239Z,71.64
2023-01-13T23:46:07.623Z,71.21
2023-01-13T23:48:34.332Z,70.54
2023-01-13T23:51:02.872Z,70.72
2023-01-13T23:53:40.407Z,70.47
2023-01-13T23:56:10.676Z,70.93
2023-01-13T23:58:37.292Z,70.79
